Time;durP1;ratioP1;P1;durP2;ratioP2;P2;SDS_P1;SDS_P2;PMS_P1;PMS_P2;Temp;Humidity;BMP_temperature;BMP_pressure;BME280_temperature;BME280_humidity;BME280_pressure;Samples;Min_cycle;Max_cycle;Signal;HPM_P1;HPM_P2
2022/11/18 00:02:04;;;;;;;22.60;14.90;;;;;;;6.17;93.73;97028.22;5029340;28;20034;-82
2022/11/18 00:04:30;;;;;;;21.35;15.18;;;;;;;6.34;93.09;97045.44;5011515;28;20033;-81
2022/11/18 00:06:55;;;;;;;19.00;12.80;;;;;;;6.73;90.70;97040.38;5027981;28;20065;-81
2022/11/18 00:09:20;;;;;;;24.90;16.70;;;;;;;6.69;90.23;97024.22;5021087;28;20029;-82
2022/11/18 00:14:30;;;;;;;19.60;12.68;;;;;;;6.76;89.27;97023.94;5017432;28;20044;-82
2022/11/18 00:17:01;;;;;;;17.55;11.80;;;;;;;6.91;89.87;97039.03;5028810;28;20436;-82
2022/11/18 00:19:35;;;;;;;23.75;16.33;;;;;;;6.77;90.44;97039.56;5003745;28;20064;-82
2022/11/18 00:22:00;;;;;;;15.88;11.75;;;;;;;6.48;91.66;97040.41;5024075;28;20033;-82
2022/11/18 00:24:26;;;;;;;25.83;16.23;;;;;;;6.27;93.35;97033.56;5023752;28;20033;-81
2022/11/18 00:26:52;;;;;;;17.70;11.98;;;;;;;6.27;90.94;96975.28;5020790;28;20066;-82
2022/11/18 00:29:17;;;;;;;17.05;11.90;;;;;;;7.03;89.11;97042.97;5022043;28;20061;-82
2022/11/18 00:31:43;;;;;;;25.42;16.88;;;;;;;6.48;90.62;97029.81;5024873;28;20113;-82
2022/11/18 00:34:12;;;;;;;20.52;13.65;;;;;;;6.45;92.30;97047.03;5028097;28;20577;-81
2022/11/18 00:36:38;;;;;;;29.08;17.45;;;;;;;5.98;94.19;97057.09;5030652;28;20091;-81
2022/11/18 00:39:03;;;;;;;27.65;18.35;;;;;;;5.78;96.40;97051.72;5007637;28;20038;-81
2022/11/18 00:42:49;;;;;;;37.47;21.70;;;;;;;6.02;94.88;97051.00;5019391;28;20049;-82
2022/11/18 00:44:14;;;;;;;31.08;18.60;;;;;;;5.68;96.25;97035.84;5021067;28;20049;-81
2022/11/18 00:46:40;;;;;;;31.50;19.17;;;;;;;5.66;96.97;97056.44;5018955;28;20040;-81
2022/11/18 00:49:06;;;;;;;31.60;18.05;;;;;;;5.36;98.28;97033.34;5017151;28;20124;-81
2022/11/18 00:51:31;;;;;;;27.98;18.17;;;;;;;5.38;98.87;97049.75;5020128;28;20049;-81
2022/11/18 00:53:56;;;;;;;36.03;21.30;;;;;;;5.36;98.52;97059.00;5021044;28;20083;-81
2022/11/18 00:56:22;;;;;;;37.05;20.88;;;;;;;5.47;98.73;97064.06;5021695;28;20111;-81
2022/11/18 00:58:47;;;;;;;21.80;14.82;;;;;;;5.89;96.93;97046.22;5029537;28;20032;-82
2022/11/18 01:01:12;;;;;;;23.35;13.15;;;;;;;6.54;92.41;97056.06;5020433;28;20485;-81
2022/11/18 01:03:38;;;;;;;19.05;12.40;;;;;;;6.84;90.03;97055.22;5015639;28;20030;-82
2022/11/18 01:06:03;;;;;;;18.00;12.00;;;;;;;6.70;89.98;97039.09;5008729;28;20037;-82
2022/11/18 01:08:29;;;;;;;21.80;15.43;;;;;;;6.59;90.46;97042.00;5010629;28;20267;-81
2022/11/18 01:13:17;;;;;;;15.60;12.25;;;;;;;6.90;89.85;97058.66;5015075;28;20463;-82
2022/11/18 01:13:39;;;;;;;15.85;11.63;;;;;;;7.06;88.44;97047.72;5022925;28;20033;-81
2022/11/18 01:16:05;;;;;;;13.48;10.10;;;;;;;7.09;87.98;97041.09;5011168;28;20041;-81
2022/11/18 01:18:30;;;;;;;18.27;12.70;;;;;;;7.09;87.73;97039.25;4988576;28;20111;-81
2022/11/18 01:21:01;;;;;;;12.85;9.18;;;;;;;7.05;87.72;97042.72;5008609;28;20037;-82
2022/11/18 01:23:26;;;;;;;14.00;9.70;;;;;;;7.14;88.32;97055.13;5009502;28;20033;-82
2022/11/18 01:25:52;;;;;;;13.60;9.80;;;;;;;7.12;87.56;97048.53;5010512;28;20504;-82
2022/11/18 01:28:18;;;;;;;14.15;11.38;;;;;;;7.01;89.22;97061.00;5026668;28;20037;-81
2022/11/18 01:30:44;;;;;;;24.30;16.90;;;;;;;6.65;89.90;97059.47;5022866;28;20036;-82
2022/11/18 01:33:10;;;;;;;31.15;17.55;;;;;;;6.23;93.72;97056.31;5018801;28;20596;-81
2022/11/18 01:35:37;;;;;;;26.65;17.23;;;;;;;6.14;94.85;97057.91;5024567;28;20091;-82
2022/11/18 01:38:04;;;;;;;32.20;19.77;;;;;;;5.96;95.66;97061.84;5021094;28;20089;-82
2022/11/18 01:40:30;;;;;;;30.35;19.95;;;;;;;5.85;96.03;97063.66;5026032;28;20167;-82
2022/11/18 01:42:55;;;;;;;27.92;19.63;;;;;;;5.74;97.47;97072.63;4993215;28;20124;-82
2022/11/18 01:45:30;;;;;;;31.48;19.92;;;;;;;5.67;98.06;97061.50;5022338;28;21499;-82
2022/11/18 01:48:16;;;;;;;33.80;20.40;;;;;;;5.65;98.06;97060.97;5020575;28;20075;-82
2022/11/18 01:50:51;;;;;;;32.17;21.25;;;;;;;5.49;99.10;97069.91;5022658;28;20045;-81
2022/11/18 01:53:26;;;;;;;30.10;18.55;;;;;;;5.59;98.56;97061.97;5022418;28;20029;-82
2022/11/18 01:55:54;;;;;;;19.47;13.67;;;;;;;6.27;95.30;97060.81;5003010;28;20382;-82
2022/11/18 01:58:29;;;;;;;23.55;15.45;;;;;;;6.15;94.03;97057.63;5007504;28;20287;-82
2022/11/18 02:00:54;;;;;;;29.75;18.60;;;;;;;5.89;94.83;97056.00;5021962;28;20116;-82
2022/11/18 02:03:21;;;;;;;19.60;13.10;;;;;;;6.43;93.27;97072.22;5005931;28;20036;-82
2022/11/18 02:05:49;;;;;;;20.55;13.80;;;;;;;6.78;90.16;97053.63;5007972;28;20397;-82
2022/11/18 02:08:17;;;;;;;24.42;16.98;;;;;;;6.77;90.82;97076.69;5027037;28;20033;-82
2022/11/18 02:10:42;;;;;;;29.10;18.40;;;;;;;6.12;93.87;97067.94;5027575;28;20493;-82
2022/11/18 02:13:08;;;;;;;21.75;14.48;;;;;;;5.87;95.35;97061.59;5027560;28;20037;-82
2022/11/18 02:15:33;;;;;;;16.70;12.57;;;;;;;6.47;93.41;97076.72;5028384;28;20076;-82
2022/11/18 02:18:13;;;;;;;17.50;11.48;;;;;;;6.44;91.96;97066.66;5021125;28;20037;-82
2022/11/18 02:20:43;;;;;;;24.02;15.00;;;;;;;5.92;93.18;97045.69;5017082;28;20029;-82
2022/11/18 02:23:11;;;;;;;31.63;18.73;;;;;;;6.29;93.07;97087.06;5020973;28;20482;-82
2022/11/18 02:26:06;;;;;;;31.17;19.45;;;;;;;5.70;95.61;97082.13;5020367;28;20021;-83
2022/11/18 02:28:36;;;;;;;35.58;19.85;;;;;;;5.72;96.60;97103.06;5035350;28;20452;-82
2022/11/18 02:31:14;;;;;;;38.90;21.58;;;;;;;5.37;98.97;97094.97;5021663;28;20036;-82
2022/11/18 02:33:54;;;;;;;36.20;21.73;;;;;;;5.12;100.00;97082.44;5022992;28;20021;-81
2022/11/18 02:36:25;;;;;;;33.15;21.23;;;;;;;5.38;99.58;97099.22;5027215;28;20052;-81
2022/11/18 02:38:56;;;;;;;35.83;21.90;;;;;;;5.39;99.97;97093.69;5034987;28;20037;-82
2022/11/18 02:41:29;;;;;;;41.33;22.75;;;;;;;5.34;100.00;97088.34;5020292;28;20025;-82
2022/11/18 02:43:59;;;;;;;48.17;25.95;;;;;;;5.37;100.00;97093.16;5021541;28;20030;-82
2022/11/18 02:46:29;;;;;;;22.17;14.52;;;;;;;6.00;96.80;97094.69;5024367;28;20030;-82
2022/11/18 02:48:55;;;;;;;22.00;14.57;;;;;;;6.39;92.02;97077.25;5020962;28;20577;-82
2022/11/18 02:51:26;;;;;;;19.23;12.77;;;;;;;6.75;90.21;97088.63;5022688;28;20397;-82
2022/11/18 02:53:55;;;;;;;19.83;12.32;;;;;;;6.98;89.83;97109.28;5024887;28;20482;-82
2022/11/18 02:56:24;;;;;;;15.60;11.13;;;;;;;6.90;89.38;97091.28;5021873;28;20108;-82
2022/11/18 02:58:49;;;;;;;20.00;13.07;;;;;;;6.72;90.36;97111.19;5025850;28;20149;-82
2022/11/18 03:01:28;;;;;;;18.27;12.77;;;;;;;6.69;91.03;97102.94;5025610;28;20037;-83
2022/11/18 03:03:53;;;;;;;27.55;18.65;;;;;;;6.36;92.01;97116.72;5025458;28;20203;-82
2022/11/18 03:06:27;;;;;;;22.25;13.63;;;;;;;6.23;94.60;97117.22;5024587;28;20044;-82
2022/11/18 03:09:16;;;;;;;28.77;18.52;;;;;;;6.41;92.39;97104.28;5029767;28;20030;-82
2022/11/18 03:12:04;;;;;;;21.20;14.57;;;;;;;6.62;91.66;97123.63;5020493;28;20037;-82
2022/11/18 03:14:57;;;;;;;19.00;12.05;;;;;;;6.77;91.13;97123.66;5027119;28;20502;-82
2022/11/18 03:17:37;;;;;;;32.30;19.10;;;;;;;6.29;93.28;97126.81;5025092;28;20571;-82
2022/11/18 03:20:25;;;;;;;34.53;21.20;;;;;;;6.06;96.07;97130.72;5018104;28;20042;-82
2022/11/18 03:23:03;;;;;;;20.60;14.27;;;;;;;6.75;92.75;97139.00;5021829;28;20029;-82
2022/11/18 03:25:33;;;;;;;30.05;17.65;;;;;;;6.59;91.57;97124.16;5022026;28;20390;-82
2022/11/18 03:28:09;;;;;;;17.65;12.68;;;;;;;6.99;90.25;97134.75;5020255;28;20038;-82
2022/11/18 03:30:39;;;;;;;17.63;12.52;;;;;;;6.71;91.53;97135.28;5022839;28;20051;-82
2022/11/18 03:33:11;;;;;;;29.70;17.85;;;;;;;6.97;89.67;97142.16;5023912;28;20042;-82
2022/11/18 03:35:40;;;;;;;19.85;11.93;;;;;;;7.05;88.82;97131.03;5021757;28;20025;-82
2022/11/18 03:38:12;;;;;;;16.52;11.35;;;;;;;7.31;87.47;97145.84;5003418;28;20037;-82
2022/11/18 03:40:40;;;;;;;17.42;12.10;;;;;;;6.77;87.57;97065.31;5024378;28;20021;-82
2022/11/18 03:43:12;;;;;;;14.35;11.48;;;;;;;7.11;88.07;97122.00;5020021;28;20494;-82
2022/11/18 03:45:49;;;;;;;16.67;11.90;;;;;;;7.20;88.81;97154.88;5019474;28;20270;-82
2022/11/18 03:48:24;;;;;;;18.17;10.55;;;;;;;7.29;88.14;97149.84;5021291;28;20041;-82
2022/11/18 03:50:59;;;;;;;16.30;11.50;;;;;;;7.22;88.23;97146.66;5020596;28;20068;-82
2022/11/18 03:53:29;;;;;;;16.52;11.43;;;;;;;7.30;87.86;97154.06;5023751;28;20083;-82
2022/11/18 03:56:02;;;;;;;21.02;11.93;;;;;;;7.31;88.06;97153.00;5022283;28;20029;-82
2022/11/18 03:58:35;;;;;;;18.33;11.57;;;;;;;7.33;88.14;97156.19;5024552;28;20021;-82
2022/11/18 04:01:08;;;;;;;20.70;13.52;;;;;;;7.23;87.73;97149.03;5018046;28;20366;-82
2022/11/18 04:03:35;;;;;;;30.23;18.10;;;;;;;6.44;91.74;97114.38;5021651;28;20017;-82
2022/11/18 04:06:29;;;;;;;36.30;21.02;;;;;;;6.28;94.69;97154.34;5001066;28;20034;-82
2022/11/18 04:08:58;;;;;;;40.00;22.73;;;;;;;6.01;95.87;97126.19;5019782;28;20053;-82
2022/11/18 04:14:15;;;;;;;36.90;22.10;;;;;;;6.03;97.50;97160.34;5022243;28;20065;-82
2022/11/18 04:16:42;;;;;;;38.67;22.77;;;;;;;5.87;97.99;97146.31;5005153;28;20043;-82
2022/11/18 04:19:08;;;;;;;41.42;22.98;;;;;;;5.89;98.70;97161.91;5020603;28;20029;-82
2022/11/18 04:21:33;;;;;;;45.72;26.00;;;;;;;5.93;98.66;97161.13;5020381;28;20026;-82
2022/11/18 04:23:58;;;;;;;47.75;24.45;;;;;;;5.90;98.28;97171.44;4998972;28;20116;-82
2022/11/18 04:26:24;;;;;;;27.88;15.93;;;;;;;6.04;98.17;97135.47;5026391;28;20401;-82
2022/11/18 04:28:49;;;;;;;24.40;14.52;;;;;;;6.01;97.95;97146.59;5003933;28;20116;-82
2022/11/18 04:31:14;;;;;;;25.58;16.42;;;;;;;6.19;96.90;97167.28;5002584;28;20041;-82
2022/11/18 04:33:40;;;;;;;30.85;15.55;;;;;;;6.26;96.41;97165.19;5027115;28;20040;-82
2022/11/18 04:36:06;;;;;;;33.90;19.50;;;;;;;6.40;95.38;97166.28;5025032;28;20520;-82
2022/11/18 04:38:31;;;;;;;45.72;25.48;;;;;;;6.36;95.21;97173.16;5024884;28;20037;-82
2022/11/18 04:40:56;;;;;;;46.63;26.77;;;;;;;6.05;96.53;97167.00;5019183;28;20104;-82
2022/11/18 04:43:22;;;;;;;50.72;27.33;;;;;;;5.86;97.44;97163.22;5021328;28;20131;-82
2022/11/18 04:45:47;;;;;;;50.63;27.75;;;;;;;6.01;98.15;97181.00;4985024;28;20057;-81
2022/11/18 04:48:13;;;;;;;52.33;26.67;;;;;;;5.75;97.93;97148.31;5020075;28;20045;-82
2022/11/18 04:50:38;;;;;;;49.97;27.02;;;;;;;5.82;98.46;97171.91;5000309;28;20045;-81
2022/11/18 04:53:03;;;;;;;59.47;29.30;;;;;;;5.64;100.00;97182.94;5010303;28;20040;-82
2022/11/18 04:55:29;;;;;;;54.00;29.23;;;;;;;5.48;100.00;97173.34;4996528;28;20476;-81
2022/11/18 04:57:54;;;;;;;58.50;32.78;;;;;;;5.50;100.00;97177.34;5014807;28;20108;-82
2022/11/18 05:00:21;;;;;;;60.95;30.88;;;;;;;5.58;100.00;97181.31;5002381;28;20034;-81
2022/11/18 05:02:47;;;;;;;68.68;32.88;;;;;;;5.44;100.00;97167.75;5001128;28;20037;-80
2022/11/18 05:05:13;;;;;;;63.90;31.23;;;;;;;5.57;100.00;97203.56;5023078;28;20477;-81
2022/11/18 05:07:38;;;;;;;64.28;30.92;;;;;;;5.58;100.00;97191.91;5022871;28;20037;-81
2022/11/18 05:10:04;;;;;;;60.72;31.42;;;;;;;5.53;100.00;97179.44;5017912;28;20045;-81
2022/11/18 05:12:48;;;;;;;34.55;19.05;;;;;;;5.66;100.00;97192.22;5012235;28;20076;-81
2022/11/18 05:15:15;;;;;;;67.75;31.20;;;;;;;5.72;100.00;97185.88;4990046;28;20135;-81
2022/11/18 05:17:40;;;;;;;60.58;31.23;;;;;;;5.66;100.00;97197.50;4998373;28;20037;-81
2022/11/18 05:20:06;;;;;;;75.25;34.20;;;;;;;5.68;100.00;97210.50;4982890;28;20378;-82
2022/11/18 05:22:32;;;;;;;65.35;30.85;;;;;;;5.70;100.00;97214.47;5032010;28;20021;-81
2022/11/18 05:24:57;;;;;;;67.82;34.78;;;;;;;5.56;100.00;97189.53;5019794;28;20111;-81
2022/11/18 05:27:22;;;;;;;68.45;34.22;;;;;;;5.62;100.00;97211.50;5014892;28;20052;-81
2022/11/18 05:29:48;;;;;;;71.38;33.78;;;;;;;5.70;100.00;97219.75;5003077;28;20051;-81
2022/11/18 05:32:13;;;;;;;72.35;33.63;;;;;;;5.59;100.00;97217.34;5020964;28;20095;-81
2022/11/18 05:34:43;;;;;;;77.68;35.90;;;;;;;5.50;100.00;97224.97;5020821;28;20042;-81
2022/11/18 05:37:09;;;;;;;78.50;36.67;;;;;;;5.47;100.00;97214.88;5020750;28;20189;-81
2022/11/18 05:39:34;;;;;;;60.80;29.35;;;;;;;5.40;100.00;97210.84;5008682;28;20035;-81
2022/11/18 05:44:44;;;;;;;69.60;33.22;;;;;;;5.68;100.00;97229.03;5027346;28;20036;-81
2022/11/18 05:47:10;;;;;;;71.47;34.92;;;;;;;5.73;100.00;97221.09;5022659;28;20041;-81
2022/11/18 05:49:35;;;;;;;42.58;22.38;;;;;;;6.24;98.91;97232.75;5024232;28;20030;-81
2022/11/18 05:52:01;;;;;;;70.75;33.50;;;;;;;6.11;98.43;97225.28;5024092;28;20040;-81
2022/11/18 05:54:27;;;;;;;74.57;33.17;;;;;;;5.58;99.48;97211.25;5007041;28;20487;-81
2022/11/18 05:56:52;;;;;;;41.22;22.23;;;;;;;5.61;100.00;97220.53;5028418;28;20080;-81
2022/11/18 05:59:18;;;;;;;76.80;34.17;;;;;;;5.81;100.00;97247.09;4995187;28;20036;-81
2022/11/18 06:01:58;;;;;;;39.42;20.48;;;;;;;6.17;98.29;97240.94;5029136;28;20021;-81
2022/11/18 06:04:33;;;;;;;39.53;20.42;;;;;;;6.64;93.96;97251.41;5025717;28;20071;-81
2022/11/18 06:07:21;;;;;;;71.87;32.23;;;;;;;6.29;96.97;97253.97;5024233;28;20140;-81
2022/11/18 06:09:51;;;;;;;38.83;19.98;;;;;;;6.63;94.06;97258.56;5033042;28;20504;-81
2022/11/18 06:12:24;;;;;;;61.30;27.33;;;;;;;5.94;97.02;97258.03;5034407;28;20093;-81
2022/11/18 06:14:57;;;;;;;65.15;30.10;;;;;;;5.71;98.76;97245.19;5032717;28;20135;-81
2022/11/18 06:17:29;;;;;;;52.67;27.40;;;;;;;5.86;98.75;97261.19;5026980;28;20213;-81
2022/11/18 06:19:56;;;;;;;71.28;32.67;;;;;;;5.58;100.00;97273.94;5030677;28;20025;-81
2022/11/18 06:22:21;;;;;;;71.93;34.42;;;;;;;5.54;100.00;97278.97;5030559;28;20044;-81
2022/11/18 06:24:47;;;;;;;58.97;27.85;;;;;;;5.46;100.00;97282.06;5004356;28;20042;-81
2022/11/18 06:27:16;;;;;;;81.20;34.42;;;;;;;5.28;100.00;97280.63;5025001;28;20057;-81
2022/11/18 06:29:42;;;;;;;66.43;30.80;;;;;;;5.41;100.00;97284.69;5032314;28;20440;-81
2022/11/18 06:32:07;;;;;;;63.42;31.52;;;;;;;5.28;100.00;97264.75;5012992;28;20127;-81
2022/11/18 06:34:32;;;;;;;56.97;29.27;;;;;;;5.33;100.00;97285.13;4991163;28;20037;-81
2022/11/18 06:36:58;;;;;;;67.50;30.27;;;;;;;5.25;100.00;97280.31;5031602;28;20071;-81
2022/11/18 06:39:23;;;;;;;47.78;23.40;;;;;;;5.51;100.00;97282.09;5030303;28;20044;-81
2022/11/18 06:41:52;;;;;;;63.05;30.38;;;;;;;5.30;100.00;97293.59;4999364;28;20337;-81
2022/11/18 06:44:18;;;;;;;62.63;27.85;;;;;;;5.20;100.00;97298.78;5027705;28;20104;-81
2022/11/18 06:46:55;;;;;;;52.90;26.08;;;;;;;5.36;100.00;97305.81;5026778;28;20053;-81
2022/11/18 06:49:21;;;;;;;59.33;28.98;;;;;;;5.20;100.00;97315.47;5013703;28;20045;-80
2022/11/18 06:51:47;;;;;;;51.85;28.27;;;;;;;5.18;100.00;97295.59;5029904;28;20041;-81
2022/11/18 06:54:12;;;;;;;52.90;28.58;;;;;;;5.22;100.00;97307.28;5031302;28;20034;-81
2022/11/18 06:56:38;;;;;;;54.42;30.45;;;;;;;5.18;100.00;97314.91;5030039;28;20032;-81
2022/11/18 06:59:03;;;;;;;51.30;23.65;;;;;;;5.26;100.00;97305.72;5015136;28;20032;-81
2022/11/18 07:01:31;;;;;;;64.38;30.67;;;;;;;5.39;100.00;97318.53;5031338;28;20116;-81
2022/11/18 07:03:58;;;;;;;58.95;29.92;;;;;;;5.24;100.00;97319.19;5023516;28;20091;-81
2022/11/18 07:06:30;;;;;;;54.40;27.88;;;;;;;5.39;100.00;97330.97;5024918;28;20517;-81
2022/11/18 07:08:55;;;;;;;53.08;27.80;;;;;;;5.18;100.00;97336.06;5032271;28;20061;-81
2022/11/18 07:11:25;;;;;;;56.88;28.23;;;;;;;5.08;100.00;97321.97;5019024;28;20076;-81
2022/11/18 07:13:51;;;;;;;63.85;31.02;;;;;;;5.28;100.00;97341.47;5030177;28;20452;-81
2022/11/18 07:16:24;;;;;;;52.28;25.77;;;;;;;5.15;100.00;97327.84;5022852;28;20029;-81
2022/11/18 07:18:51;;;;;;;55.50;27.50;;;;;;;5.03;100.00;97343.06;5007817;28;20375;-80
2022/11/18 07:21:19;;;;;;;52.30;27.20;;;;;;;5.01;100.00;97348.59;5014354;28;20060;-80
2022/11/18 07:23:46;;;;;;;54.58;29.23;;;;;;;5.01;100.00;97353.09;5026760;28;20090;-81
2022/11/18 07:26:12;;;;;;;50.33;26.38;;;;;;;5.16;100.00;97348.75;5028823;28;20033;-81
2022/11/18 07:28:38;;;;;;;54.25;27.17;;;;;;;5.31;100.00;97356.00;5028389;28;20063;-81
2022/11/18 07:31:14;;;;;;;50.30;25.13;;;;;;;5.23;100.00;97359.94;5029446;28;20038;-81
2022/11/18 07:33:41;;;;;;;63.47;27.77;;;;;;;5.04;100.00;97353.41;5029538;28;20022;-81
2022/11/18 07:36:12;;;;;;;57.35;29.30;;;;;;;5.09;100.00;97369.31;5030375;28;20021;-81
2022/11/18 07:38:38;;;;;;;58.17;28.33;;;;;;;4.84;100.00;97355.03;5032229;28;20039;-81
2022/11/18 07:41:12;;;;;;;56.58;29.27;;;;;;;4.97;100.00;97373.94;5031749;28;20041;-81
2022/11/18 07:43:38;;;;;;;55.83;29.10;;;;;;;5.16;100.00;97367.25;5028707;28;20025;-81
2022/11/18 07:46:31;;;;;;;53.80;28.05;;;;;;;5.04;100.00;97363.97;5031535;28;20029;-80
2022/11/18 07:48:58;;;;;;;52.45;27.80;;;;;;;4.96;100.00;97364.41;5027456;28;20445;-81
2022/11/18 07:51:26;;;;;;;53.95;26.27;;;;;;;5.16;100.00;97390.25;5027917;28;20025;-81
2022/11/18 07:53:52;;;;;;;63.03;27.35;;;;;;;5.01;100.00;97372.41;5030433;28;20040;-81
2022/11/18 07:56:18;;;;;;;55.63;27.50;;;;;;;5.38;100.00;97391.00;5029773;28;20030;-81
2022/11/18 07:58:44;;;;;;;56.90;29.73;;;;;;;5.22;100.00;97381.34;5027264;28;20063;-81
2022/11/18 08:01:15;;;;;;;49.42;25.50;;;;;;;5.48;100.00;97396.41;5030146;28;20033;-81
2022/11/18 08:03:40;;;;;;;39.33;22.10;;;;;;;5.42;100.00;97400.03;5030863;28;20463;-81
2022/11/18 08:06:08;;;;;;;51.47;26.67;;;;;;;5.06;100.00;97383.03;5029624;28;20106;-81
2022/11/18 08:08:34;;;;;;;54.90;27.85;;;;;;;4.90;100.00;97377.81;5029399;28;20135;-80
2022/11/18 08:11:01;;;;;;;55.78;27.80;;;;;;;5.14;100.00;97400.28;5011379;28;20030;-81
2022/11/18 08:13:27;;;;;;;55.00;28.15;;;;;;;5.40;100.00;97391.56;5021469;28;20317;-81
2022/11/18 08:15:53;;;;;;;51.10;26.40;;;;;;;5.53;100.00;97396.44;5024795;28;20446;-81
2022/11/18 08:18:19;;;;;;;52.13;27.08;;;;;;;5.66;100.00;97393.38;5026238;28;20038;-81
2022/11/18 08:20:45;;;;;;;29.15;17.67;;;;;;;6.16;98.83;97408.06;5013134;28;20052;-81
2022/11/18 08:23:11;;;;;;;49.85;26.08;;;;;;;5.88;98.23;97407.34;5030280;28;20029;-81
2022/11/18 08:25:37;;;;;;;36.08;19.27;;;;;;;6.00;98.52;97412.47;5023335;28;20030;-81
2022/11/18 08:28:02;;;;;;;47.80;25.02;;;;;;;5.92;97.80;97397.84;5028541;28;20090;-81
2022/11/18 08:30:28;;;;;;;30.00;16.88;;;;;;;6.32;96.04;97388.56;5013078;28;20037;-81
2022/11/18 08:32:54;;;;;;;37.10;21.50;;;;;;;6.09;95.01;97388.94;5028936;28;20150;-81
2022/11/18 08:35:19;;;;;;;26.67;17.20;;;;;;;6.07;96.95;97415.69;5029600;28;20033;-81
2022/11/18 08:37:45;;;;;;;30.40;17.48;;;;;;;6.39;95.17;97392.59;5028571;28;20083;-81
2022/11/18 08:40:10;;;;;;;36.03;22.35;;;;;;;6.14;95.98;97400.38;5025624;28;20044;-81
2022/11/18 08:42:36;;;;;;;31.25;18.67;;;;;;;6.31;95.71;97421.41;4987726;28;20084;-81
2022/11/18 08:45:07;;;;;;;27.77;17.67;;;;;;;6.35;93.80;97399.44;4996694;28;20087;-81
2022/11/18 08:47:33;;;;;;;32.05;18.85;;;;;;;6.14;95.22;97420.78;5026345;28;20095;-81
2022/11/18 08:49:58;;;;;;;38.30;20.85;;;;;;;5.96;95.88;97427.28;5030135;28;20477;-81
2022/11/18 08:52:23;;;;;;;33.10;21.25;;;;;;;5.77;97.58;97442.69;5025282;28;20083;-81
2022/11/18 08:54:49;;;;;;;41.05;22.95;;;;;;;5.67;98.32;97432.03;5026604;28;20033;-81
2022/11/18 08:57:14;;;;;;;42.45;24.35;;;;;;;5.29;99.85;97416.31;5007554;28;20037;-81
2022/11/18 08:59:40;;;;;;;31.52;19.27;;;;;;;5.58;100.00;97428.25;4993716;28;20025;-81
2022/11/18 09:02:05;;;;;;;44.03;23.50;;;;;;;5.28;100.00;97415.53;5008225;28;20481;-81
2022/11/18 09:04:30;;;;;;;55.97;25.98;;;;;;;5.44;99.59;97424.38;5011272;28;20052;-81
2022/11/18 09:06:56;;;;;;;44.38;25.60;;;;;;;5.52;100.00;97445.13;5008909;28;20021;-81
2022/11/18 09:09:21;;;;;;;46.55;25.27;;;;;;;5.48;99.97;97451.16;5026051;28;20029;-81
2022/11/18 09:11:47;;;;;;;45.60;24.95;;;;;;;5.41;100.00;97454.00;5016438;28;20030;-81
2022/11/18 09:14:12;;;;;;;42.85;23.17;;;;;;;5.38;99.84;97451.03;5028952;28;20297;-81
2022/11/18 09:16:38;;;;;;;47.78;23.80;;;;;;;5.35;100.00;97449.72;5022020;28;20084;-81
2022/11/18 09:19:03;;;;;;;43.28;23.17;;;;;;;5.09;100.00;97445.19;5024321;28;20600;-81
2022/11/18 09:21:29;;;;;;;40.75;23.60;;;;;;;5.22;100.00;97463.34;5026368;28;20387;-81
2022/11/18 09:23:54;;;;;;;46.03;25.95;;;;;;;5.18;100.00;97449.78;5025004;28;20061;-81
2022/11/18 09:26:22;;;;;;;44.10;24.02;;;;;;;5.20;100.00;97468.84;5027092;28;20032;-81
2022/11/18 09:28:51;;;;;;;50.35;25.88;;;;;;;5.00;100.00;97458.03;5012181;28;20315;-81
2022/11/18 09:31:17;;;;;;;43.00;23.20;;;;;;;5.17;100.00;97471.22;5028456;28;20063;-81
2022/11/18 09:33:43;;;;;;;53.85;25.85;;;;;;;5.20;100.00;97468.84;5028323;28;20041;-81
2022/11/18 09:36:15;;;;;;;44.95;26.92;;;;;;;4.99;100.00;97459.09;5011760;28;20037;-81
2022/11/18 09:38:41;;;;;;;50.88;26.20;;;;;;;5.13;100.00;97472.75;5029481;28;20034;-81
2022/11/18 09:41:29;;;;;;;44.47;25.27;;;;;;;5.14;99.67;97484.91;5027381;28;20379;-81
2022/11/18 09:44:02;;;;;;;44.83;25.17;;;;;;;5.05;100.00;97487.19;5032583;28;20044;-81
2022/11/18 09:46:56;;;;;;;47.72;24.23;;;;;;;4.99;100.00;97487.38;5031663;28;20037;-81
2022/11/18 09:49:29;;;;;;;51.20;26.10;;;;;;;4.89;100.00;97480.09;5023516;28;20040;-81
2022/11/18 09:51:56;;;;;;;55.75;25.95;;;;;;;5.10;100.00;97489.09;5029240;28;20719;-81
2022/11/18 09:54:29;;;;;;;44.90;24.05;;;;;;;4.85;100.00;97471.06;5030197;28;20056;-81
2022/11/18 09:56:55;;;;;;;54.72;26.92;;;;;;;4.86;100.00;97490.38;5032970;28;20017;-81
2022/11/18 09:59:23;;;;;;;50.92;26.10;;;;;;;4.81;100.00;97495.59;5015564;28;20119;-80
2022/11/18 10:01:51;;;;;;;50.75;27.67;;;;;;;4.88;100.00;97496.22;5031917;28;20018;-81
2022/11/18 10:04:19;;;;;;;51.03;25.73;;;;;;;4.86;100.00;97499.13;5029554;28;20144;-80
2022/11/18 10:06:46;;;;;;;51.97;26.70;;;;;;;4.80;100.00;97489.53;5032665;28;20041;-81
2022/11/18 10:09:36;;;;;;;47.35;25.17;;;;;;;4.84;100.00;97508.34;5015303;28;20037;-81
2022/11/18 10:12:11;;;;;;;53.53;28.50;;;;;;;5.12;100.00;97508.97;5028262;28;20022;-81
2022/11/18 10:14:51;;;;;;;53.17;28.33;;;;;;;5.15;100.00;97507.69;5027502;28;20040;-81
2022/11/18 10:17:42;;;;;;;51.58;25.88;;;;;;;5.22;100.00;97514.38;5033215;28;20465;-81
2022/11/18 10:20:35;;;;;;;55.83;29.02;;;;;;;5.20;100.00;97520.94;5031125;28;20529;-81
2022/11/18 10:23:20;;;;;;;36.20;21.00;;;;;;;5.32;100.00;97519.78;5018699;28;20025;-81
2022/11/18 10:25:45;;;;;;;56.80;27.40;;;;;;;4.71;100.00;97504.22;5024667;28;20044;-81
2022/11/18 10:28:30;;;;;;;53.92;29.60;;;;;;;4.64;100.00;97497.47;5030637;28;20029;-81
2022/11/18 10:31:07;;;;;;;54.78;31.17;;;;;;;4.64;100.00;97531.84;5024302;28;20029;-81
2022/11/18 10:33:34;;;;;;;55.63;27.83;;;;;;;4.62;100.00;97542.66;5024552;28;20030;-81
2022/11/18 10:36:23;;;;;;;51.70;27.45;;;;;;;4.89;100.00;97537.50;5022577;28;20037;-81
2022/11/18 10:39:04;;;;;;;52.17;25.63;;;;;;;4.41;100.00;97525.69;5030850;28;20052;-81
2022/11/18 10:41:38;;;;;;;49.22;25.73;;;;;;;4.64;100.00;97537.94;5024098;28;20433;-81
2022/11/18 10:44:03;;;;;;;48.78;24.73;;;;;;;4.24;100.00;97518.81;5022598;28;20484;-81
2022/11/18 10:46:34;;;;;;;53.13;25.83;;;;;;;4.43;100.00;97550.00;5025923;28;20029;-81
2022/11/18 10:49:09;;;;;;;46.20;23.92;;;;;;;4.50;100.00;97552.50;5031597;28;20025;-80
2022/11/18 10:51:46;;;;;;;44.50;21.85;;;;;;;4.44;100.00;97554.28;5025458;28;20033;-81
2022/11/18 10:54:20;;;;;;;46.70;24.48;;;;;;;4.38;100.00;97549.97;5028966;28;20033;-81
2022/11/18 10:56:56;;;;;;;43.83;22.33;;;;;;;4.14;100.00;97542.44;5011963;28;20032;-83
2022/11/18 10:59:38;;;;;;;;;;;;;;;4.19;100.00;97564.44;5028247;28;20030;-81
2022/11/18 11:02:32;;;;;;;44.97;20.58;;;;;;;4.27;100.00;97553.47;5032165;28;20435;-81
2022/11/18 11:05:14;;;;;;;40.90;20.05;;;;;;;4.37;100.00;97564.19;5030562;28;20109;-81
2022/11/18 11:07:39;;;;;;;36.05;19.42;;;;;;;3.94;100.00;97536.78;5023357;28;20470;-82
2022/11/18 11:10:04;;;;;;;37.75;19.70;;;;;;;4.17;100.00;97563.84;5034043;28;20037;-82
2022/11/18 11:12:45;;;;;;;31.63;17.48;;;;;;;4.37;100.00;97558.91;5048994;28;20088;-82
2022/11/18 11:15:37;;;;;;;35.55;19.58;;;;;;;4.03;100.00;97567.84;5035296;28;20026;-82
2022/11/18 11:20:53;;;;;;;36.28;19.42;;;;;;;4.13;100.00;97567.25;5037246;28;20168;-82
2022/11/18 11:23:21;;;;;;;31.35;20.15;;;;;;;4.09;100.00;97569.53;5022125;28;20631;-82
2022/11/18 11:25:50;;;;;;;31.65;17.58;;;;;;;4.06;100.00;97582.44;5038626;28;20029;-82
2022/11/18 11:28:47;;;;;;;34.05;18.60;;;;;;;3.97;100.00;97582.00;5026794;28;20039;-82
2022/11/18 11:31:12;;;;;;;34.67;19.55;;;;;;;4.12;100.00;97587.56;5032395;28;20033;-82
2022/11/18 11:34:06;;;;;;;37.75;19.55;;;;;;;4.21;100.00;97586.13;5026603;28;20060;-82
2022/11/18 11:36:40;;;;;;;32.53;19.00;;;;;;;3.96;100.00;97551.38;5023219;28;20172;-82
2022/11/18 11:39:24;;;;;;;36.05;17.30;;;;;;;4.17;100.00;97582.34;5029709;28;20021;-82
2022/11/18 11:42:13;;;;;;;38.58;18.75;;;;;;;4.00;100.00;97572.81;5042496;28;20055;-81
2022/11/18 11:44:49;;;;;;;31.63;17.48;;;;;;;3.89;100.00;97569.19;5024584;28;20018;-82
2022/11/18 11:47:46;;;;;;;32.15;16.90;;;;;;;3.93;100.00;97559.78;5020856;28;20149;-82